Time;durP1;ratioP1;P1;durP2;ratioP2;P2;SDS_P1;SDS_P2;PMS_P1;PMS_P2;Temp;Humidity;BMP_temperature;BMP_pressure;BME280_temperature;BME280_humidity;BME280_pressure;Samples;Min_cycle;Max_cycle;Signal;HPM_P1;HPM_P2
2023/01/12 00:02:18;;;;;;;7.40;5.25;;;;;;;2.90;65.10;95109.53;5029306;28;20034;-70
2023/01/12 00:04:43;;;;;;;6.95;4.78;;;;;;;2.87;65.31;95114.97;5028593;28;20057;-70
2023/01/12 00:07:10;;;;;;;6.90;4.57;;;;;;;2.86;65.44;95116.09;5029853;28;20033;-71
2023/01/12 00:09:36;;;;;;;14.70;8.15;;;;;;;2.80;65.47;95109.50;5029270;28;20112;-69
2023/01/12 00:12:05;;;;;;;9.40;5.38;;;;;;;2.78;65.79;95109.09;5037022;28;20519;-69
2023/01/12 00:14:34;;;;;;;9.65;6.00;;;;;;;2.77;65.88;95116.47;5045821;28;20032;-69
2023/01/12 00:17:00;;;;;;;7.90;5.10;;;;;;;2.74;65.81;95119.94;5028920;28;20538;-69
2023/01/12 00:19:25;;;;;;;7.70;5.25;;;;;;;2.82;65.92;95118.84;5028234;28;20013;-69
2023/01/12 00:24:36;;;;;;;7.95;5.47;;;;;;;2.98;65.36;95126.63;5028912;28;20111;-69
2023/01/12 00:27:03;;;;;;;7.22;5.38;;;;;;;2.97;65.27;95133.22;5022174;28;20048;-70
2023/01/12 00:29:29;;;;;;;7.65;4.93;;;;;;;2.95;65.48;95127.41;5027761;28;20033;-70
2023/01/12 00:31:55;;;;;;;7.25;4.93;;;;;;;2.96;65.41;95120.81;5023138;28;20029;-70
2023/01/12 00:34:21;;;;;;;6.35;4.72;;;;;;;2.93;65.32;95129.75;5024991;28;20072;-70
2023/01/12 00:36:46;;;;;;;7.00;5.22;;;;;;;3.00;65.36;95132.47;5046137;28;20476;-70
2023/01/12 00:39:12;;;;;;;7.18;4.85;;;;;;;3.03;65.28;95131.69;5044756;28;20021;-69
2023/01/12 00:47:07;;;;;;;7.88;5.75;;;;;;;3.09;65.11;95134.81;5029182;28;20049;-69
2023/01/12 00:49:33;;;;;;;8.73;5.47;;;;;;;3.01;65.29;95122.38;5034759;28;20034;-69
2023/01/12 00:51:58;;;;;;;7.60;5.55;;;;;;;3.02;65.41;95124.72;5031758;28;20037;-72
2023/01/12 00:54:24;;;;;;;8.70;5.38;;;;;;;3.00;65.57;95129.75;5027669;28;20021;-70
2023/01/12 00:56:51;;;;;;;7.95;5.25;;;;;;;2.96;65.62;95130.91;5025782;28;20132;-69
2023/01/12 00:59:16;;;;;;;9.50;6.43;;;;;;;2.86;66.01;95126.97;5043283;28;20024;-71
2023/01/12 01:01:41;;;;;;;8.98;5.78;;;;;;;2.79;66.31;95111.44;5028644;28;20261;-69
2023/01/12 01:04:07;;;;;;;8.43;5.60;;;;;;;2.80;66.31;95123.06;5027530;28;20033;-70
2023/01/12 01:06:32;;;;;;;8.35;6.28;;;;;;;2.80;66.42;95125.78;5027808;28;20033;-69
2023/01/12 01:08:58;;;;;;;9.60;6.38;;;;;;;2.79;66.47;95132.38;5040736;28;20057;-70
2023/01/12 01:11:23;;;;;;;8.95;5.93;;;;;;;2.67;67.17;95125.34;5026784;28;20033;-69
2023/01/12 01:13:49;;;;;;;7.70;5.43;;;;;;;2.64;67.07;95126.13;5025884;28;20087;-71
2023/01/12 01:16:15;;;;;;;9.68;6.43;;;;;;;2.62;67.14;95131.91;5031958;28;20408;-71
2023/01/12 01:18:41;;;;;;;8.38;5.68;;;;;;;2.72;66.83;95124.22;5026813;28;20083;-69
2023/01/12 01:21:10;;;;;;;8.77;5.95;;;;;;;2.54;67.37;95129.56;5023923;28;20419;-70
2023/01/12 01:23:36;;;;;;;8.95;6.18;;;;;;;2.53;67.16;95125.28;5034722;28;20047;-70
2023/01/12 01:26:03;;;;;;;7.50;5.32;;;;;;;2.52;67.24;95129.16;5012832;28;20426;-69
2023/01/12 01:28:28;;;;;;;8.13;5.70;;;;;;;2.53;67.33;95131.50;5042257;28;20069;-69
2023/01/12 01:31:03;;;;;;;9.20;5.85;;;;;;;2.57;67.21;95126.06;5025198;28;20017;-70
2023/01/12 01:33:30;;;;;;;7.68;5.60;;;;;;;2.54;67.22;95124.13;5026415;28;20118;-69
2023/01/12 01:35:55;;;;;;;8.52;5.18;;;;;;;2.53;67.17;95130.72;5028684;28;20123;-71
2023/01/12 01:38:21;;;;;;;9.27;5.70;;;;;;;2.50;67.42;95134.19;5025645;28;20111;-69
2023/01/12 01:40:46;;;;;;;9.38;5.75;;;;;;;2.51;67.32;95141.16;5025705;28;20029;-69
2023/01/12 01:43:13;;;;;;;8.63;5.80;;;;;;;2.55;67.31;95141.97;5035893;28;20033;-70
2023/01/12 01:45:38;;;;;;;9.00;5.78;;;;;;;2.56;66.98;95144.28;5040606;28;20397;-71
2023/01/12 01:48:04;;;;;;;8.30;5.53;;;;;;;2.50;67.16;95148.53;5025925;28;20032;-70
2023/01/12 01:50:32;;;;;;;9.52;6.22;;;;;;;2.50;67.33;95147.75;5033491;28;20018;-68
2023/01/12 01:53:03;;;;;;;8.30;5.38;;;;;;;2.59;67.10;95145.50;5025583;28;20064;-70
2023/01/12 01:56:08;;;;;;;8.95;5.90;;;;;;;2.60;66.98;95136.19;5015028;28;20030;-69
2023/01/12 01:58:46;;;;;;;10.00;6.50;;;;;;;2.58;66.84;95144.72;5027020;28;20041;-70
2023/01/12 02:01:12;;;;;;;9.45;5.25;;;;;;;2.56;67.06;95140.81;5025792;28;20320;-69
2023/01/12 02:03:37;;;;;;;8.25;5.47;;;;;;;2.58;67.06;95144.72;5025786;28;20036;-69
2023/01/12 02:06:03;;;;;;;9.60;5.70;;;;;;;2.47;67.18;95138.44;5005606;28;20046;-70
2023/01/12 02:08:33;;;;;;;9.23;5.18;;;;;;;2.54;67.03;95148.56;5019035;28;20029;-69
2023/01/12 02:10:59;;;;;;;7.70;5.30;;;;;;;2.55;67.15;95140.03;5026081;28;20517;-70
2023/01/12 02:16:21;;;;;;;8.40;5.57;;;;;;;2.49;67.33;95141.56;5015076;28;20044;-69
2023/01/12 02:19:15;;;;;;;6.97;5.05;;;;;;;2.48;67.28;95144.66;5006503;28;20054;-69
2023/01/12 02:22:11;;;;;;;8.82;5.57;;;;;;;2.49;67.45;95140.78;5037955;28;20551;-70
2023/01/12 02:24:46;;;;;;;9.35;5.65;;;;;;;2.50;67.41;95139.63;5025486;28;20067;-69
2023/01/12 02:27:20;;;;;;;9.05;5.68;;;;;;;2.49;67.28;95141.56;5025575;28;20460;-70
2023/01/12 02:29:59;;;;;;;8.98;5.65;;;;;;;2.56;67.21;95146.22;5009756;28;20118;-70
2023/01/12 02:32:24;;;;;;;8.15;5.18;;;;;;;2.60;67.13;95136.97;5031199;28;20440;-69
2023/01/12 02:35:15;;;;;;;10.20;5.40;;;;;;;2.50;67.22;95134.97;5025274;28;20033;-70
2023/01/12 02:37:53;;;;;;;9.15;5.40;;;;;;;2.56;67.12;95143.53;5025144;28;20029;-69
2023/01/12 02:40:36;;;;;;;9.45;6.40;;;;;;;2.59;67.21;95143.56;5024291;28;20108;-69
2023/01/12 02:43:28;;;;;;;13.23;6.63;;;;;;;2.78;66.64;95136.25;5008339;28;20041;-70
2023/01/12 02:46:10;;;;;;;9.23;5.32;;;;;;;2.77;66.55;95132.00;5024196;28;20120;-71
2023/01/12 02:48:37;;;;;;;8.63;5.38;;;;;;;2.84;66.46;95129.31;5021754;28;20036;-68
2023/01/12 02:51:08;;;;;;;9.35;5.45;;;;;;;2.85;66.06;95139.78;5027402;28;20123;-69
2023/01/12 02:53:50;;;;;;;9.05;6.10;;;;;;;2.84;66.20;95143.66;5043004;28;20025;-69
2023/01/12 02:56:27;;;;;;;9.73;5.70;;;;;;;2.98;65.63;95142.16;5044521;28;20029;-70
2023/01/12 02:58:54;;;;;;;8.60;6.25;;;;;;;3.02;65.78;95143.72;5013178;28;20044;-68
2023/01/12 03:01:20;;;;;;;8.10;5.05;;;;;;;3.06;65.62;95139.09;5046096;28;20055;-70
2023/01/12 03:03:47;;;;;;;9.77;5.35;;;;;;;3.06;65.35;95135.59;5027661;28;20484;-70
2023/01/12 03:06:14;;;;;;;7.85;5.13;;;;;;;3.12;65.07;95136.78;5011055;28;20038;-70
2023/01/12 03:08:39;;;;;;;7.60;4.88;;;;;;;3.23;64.77;95134.88;5023761;28;20448;-69
2023/01/12 03:11:11;;;;;;;8.35;5.57;;;;;;;3.29;64.86;95141.47;5044581;28;20018;-69
2023/01/12 03:13:37;;;;;;;7.93;5.30;;;;;;;3.24;64.96;95133.69;5046170;28;20033;-70
2023/01/12 03:16:03;;;;;;;6.53;4.47;;;;;;;3.21;65.04;95126.31;5031439;28;20235;-69
2023/01/12 03:18:43;;;;;;;7.10;5.20;;;;;;;3.11;65.61;95135.22;5029306;28;20432;-68
2023/01/12 03:21:16;;;;;;;7.65;5.00;;;;;;;3.10;65.54;95130.97;5011283;28;20064;-70
2023/01/12 03:23:50;;;;;;;9.80;5.45;;;;;;;3.11;65.69;95129.78;5024599;28;20095;-69
2023/01/12 03:26:17;;;;;;;6.70;4.75;;;;;;;3.09;65.80;95130.16;5027130;28;20717;-69
2023/01/12 03:28:47;;;;;;;6.85;4.90;;;;;;;2.85;65.91;95101.75;5027519;28;20194;-69
2023/01/12 03:31:12;;;;;;;7.80;5.68;;;;;;;3.03;65.99;95131.69;5026963;28;20033;-69
2023/01/12 03:33:39;;;;;;;7.38;4.53;;;;;;;3.02;66.31;95141.00;5029964;28;20095;-69
2023/01/12 03:36:32;;;;;;;8.45;5.45;;;;;;;2.91;66.66;95138.25;5014040;28;20025;-70
2023/01/12 03:39:07;;;;;;;7.20;4.47;;;;;;;2.95;66.70;95134.78;5036434;28;20049;-70
2023/01/12 03:41:50;;;;;;;9.52;5.60;;;;;;;3.00;66.52;95137.13;5028613;28;20029;-70
2023/01/12 03:44:20;;;;;;;9.90;5.43;;;;;;;2.98;66.43;95129.34;5043497;28;20193;-69
2023/01/12 03:46:54;;;;;;;9.57;5.50;;;;;;;3.07;66.39;95129.00;5012986;28;20048;-69
2023/01/12 03:49:24;;;;;;;;;;;;;;;3.12;66.29;95128.63;5024092;28;20033;-70
2023/01/12 03:51:49;;;;;;;7.25;4.63;;;;;;;3.08;66.31;95123.16;5047308;28;21635;-69
2023/01/12 03:54:15;;;;;;;7.32;4.70;;;;;;;3.08;66.09;95122.41;5029448;28;20478;-69
2023/01/12 03:56:40;;;;;;;6.43;4.63;;;;;;;3.12;66.24;95121.25;5045155;28;20404;-69
2023/01/12 03:59:06;;;;;;;9.55;5.25;;;;;;;3.09;66.21;95118.50;5048617;28;20036;-70
2023/01/12 04:01:31;;;;;;;8.35;5.03;;;;;;;3.04;66.41;95122.41;5045706;28;20029;-70
2023/01/12 04:03:57;;;;;;;8.73;5.20;;;;;;;3.05;66.54;95115.03;5032816;28;20021;-70
2023/01/12 04:06:22;;;;;;;7.72;4.90;;;;;;;3.07;66.52;95116.19;5046532;28;20071;-69
2023/01/12 04:08:48;;;;;;;8.82;5.85;;;;;;;3.11;66.45;95116.22;5029948;28;20029;-69
2023/01/12 04:13:57;;;;;;;7.43;4.82;;;;;;;3.21;65.96;95107.28;5027957;28;20145;-71
2023/01/12 04:16:23;;;;;;;9.10;4.70;;;;;;;3.20;65.80;95111.16;5028790;28;20372;-70
2023/01/12 04:18:48;;;;;;;7.90;5.72;;;;;;;3.25;65.90;95113.50;5030028;28;20574;-70
2023/01/12 04:23:57;;;;;;;;;;;;;;;3.23;65.67;95112.34;5045668;28;20443;-70
2023/01/12 04:26:23;;;;;;;8.25;4.35;;;;;;;3.16;65.76;95108.47;5029462;28;20387;-71
2023/01/12 04:28:48;;;;;;;6.60;4.40;;;;;;;3.19;66.36;95120.47;5043241;28;20410;-70
2023/01/12 04:31:14;;;;;;;7.95;5.30;;;;;;;3.23;66.00;95121.28;5036150;28;20488;-69
2023/01/12 04:33:41;;;;;;;8.00;5.55;;;;;;;3.23;65.93;95118.56;5032220;28;20025;-69
2023/01/12 04:36:07;;;;;;;8.32;5.18;;;;;;;3.19;66.16;95134.06;5011238;28;20536;-69
2023/01/12 04:38:32;;;;;;;7.95;5.07;;;;;;;3.18;66.11;95129.81;5029072;28;20036;-68
2023/01/12 04:40:57;;;;;;;8.65;5.60;;;;;;;3.20;66.24;95125.53;5037801;28;20020;-70
2023/01/12 04:43:23;;;;;;;8.00;5.47;;;;;;;3.18;66.32;95127.88;5044403;28;20028;-69
2023/01/12 04:45:48;;;;;;;7.80;5.40;;;;;;;3.20;66.45;95135.63;5040940;28;20022;-70
2023/01/12 04:48:15;;;;;;;8.27;5.43;;;;;;;3.23;66.20;95126.72;5029282;28;20034;-68
2023/01/12 04:50:41;;;;;;;10.73;5.93;;;;;;;3.32;66.08;95134.47;5025612;28;20370;-70
2023/01/12 04:53:08;;;;;;;8.60;5.47;;;;;;;3.23;66.41;95134.88;5013680;28;20163;-69
2023/01/12 04:55:35;;;;;;;10.15;6.72;;;;;;;3.18;66.62;95133.28;5038404;28;20034;-69
2023/01/12 04:58:00;;;;;;;12.65;7.10;;;;;;;3.23;66.63;95134.88;5027228;28;20082;-70
2023/01/12 05:00:25;;;;;;;10.82;6.43;;;;;;;3.14;66.84;95137.94;5032037;28;20037;-70
2023/01/12 05:02:59;;;;;;;9.52;6.05;;;;;;;3.19;66.70;95147.66;5035738;28;20037;-69
2023/01/12 05:05:25;;;;;;;10.18;6.28;;;;;;;3.25;66.70;95148.06;5025578;28;20083;-69
2023/01/12 05:10:34;;;;;;;;;;;;;;;3.31;66.68;95152.72;5046996;28;20118;-68
2023/01/12 05:13:00;;;;;;;11.60;6.18;;;;;;;3.18;67.02;95149.59;5033920;28;20354;-68
2023/01/12 05:15:25;;;;;;;8.77;5.50;;;;;;;3.11;67.22;95155.00;5029982;28;20030;-68
2023/01/12 05:17:53;;;;;;;11.18;6.28;;;;;;;3.14;67.47;95153.47;5046646;28;20021;-70
2023/01/12 05:20:19;;;;;;;11.43;6.00;;;;;;;3.10;67.31;95148.03;5034048;28;20037;-69
2023/01/12 05:22:47;;;;;;;9.40;6.18;;;;;;;3.04;67.57;95151.47;5024557;28;20393;-69
2023/01/12 05:25:12;;;;;;;9.88;6.43;;;;;;;2.96;67.86;95158.06;5027011;28;20029;-70
2023/01/12 05:27:38;;;;;;;10.68;6.22;;;;;;;2.87;68.33;95159.19;5026632;28;20058;-69
2023/01/12 05:30:04;;;;;;;12.27;6.70;;;;;;;2.90;68.34;95163.84;5036911;28;20032;-69
2023/01/12 05:32:29;;;;;;;9.93;6.25;;;;;;;2.87;68.29;95163.84;5044009;28;20055;-68
2023/01/12 05:34:55;;;;;;;10.65;6.57;;;;;;;2.88;68.24;95159.97;5035761;28;20034;-69
2023/01/12 05:37:20;;;;;;;12.00;7.68;;;;;;;2.87;68.34;95174.72;5037297;28;20095;-70
2023/01/12 05:39:46;;;;;;;11.75;7.82;;;;;;;2.89;68.32;95178.59;5027184;28;20091;-69
2023/01/12 05:44:55;;;;;;;9.90;6.60;;;;;;;2.93;68.10;95203.06;5033039;28;20048;-69
2023/01/12 05:47:20;;;;;;;9.18;5.95;;;;;;;2.91;68.19;95195.28;5027526;28;20025;-70
2023/01/12 05:49:46;;;;;;;10.55;6.68;;;;;;;2.98;68.41;95199.19;5021339;28;20036;-70
2023/01/12 05:52:11;;;;;;;10.35;6.28;;;;;;;2.95;68.32;95200.72;5029429;28;20120;-71
2023/01/12 05:54:37;;;;;;;9.70;6.20;;;;;;;2.97;68.11;95206.56;5029425;28;20029;-70
2023/01/12 05:57:02;;;;;;;10.85;6.32;;;;;;;3.01;68.23;95209.28;5025637;28;20033;-70
2023/01/12 05:59:28;;;;;;;13.07;7.03;;;;;;;3.02;68.09;95202.69;5026517;28;20119;-71
2023/01/12 06:01:53;;;;;;;11.57;7.07;;;;;;;3.03;68.28;95209.69;5028590;28;20086;-70
2023/01/12 06:04:18;;;;;;;12.70;7.32;;;;;;;2.98;68.23;95210.03;5045968;28;20017;-69
2023/01/12 06:06:45;;;;;;;11.95;7.30;;;;;;;2.97;68.49;95208.50;5028039;28;20105;-70
2023/01/12 06:09:10;;;;;;;12.13;6.65;;;;;;;2.99;68.84;95206.97;5033839;28;20045;-69
2023/01/12 06:14:20;;;;;;;11.10;6.25;;;;;;;2.98;68.85;95196.47;5021762;28;20140;-70
2023/01/12 06:16:45;;;;;;;15.68;8.40;;;;;;;2.96;68.87;95201.50;5032111;28;20021;-69
2023/01/12 06:19:11;;;;;;;12.45;6.93;;;;;;;2.90;69.03;95191.00;5036442;28;20029;-69
2023/01/12 06:21:37;;;;;;;14.35;7.88;;;;;;;2.78;69.53;95196.78;5027549;28;20053;-68
2023/01/12 06:24:03;;;;;;;11.70;7.20;;;;;;;2.69;69.98;95203.69;5032184;28;20033;-70
2023/01/12 06:26:28;;;;;;;11.88;7.03;;;;;;;2.73;69.93;95199.84;5028494;28;20087;-69
2023/01/12 06:28:54;;;;;;;13.75;8.02;;;;;;;2.70;70.16;95206.03;5026600;28;20037;-71
2023/01/12 06:31:19;;;;;;;13.25;7.78;;;;;;;2.73;69.95;95199.06;5025939;28;20115;-70
2023/01/12 06:33:44;;;;;;;13.50;7.85;;;;;;;2.68;70.11;95192.06;5038883;28;20020;-69
2023/01/12 06:36:10;;;;;;;14.27;8.20;;;;;;;2.68;70.27;95197.47;5033985;28;20029;-69
2023/01/12 06:38:36;;;;;;;14.68;7.18;;;;;;;2.74;70.26;95195.97;5028830;28;20083;-70
2023/01/12 06:43:55;;;;;;;11.75;7.38;;;;;;;2.91;69.69;95197.22;5028880;28;20054;-69
2023/01/12 06:46:20;;;;;;;13.57;7.28;;;;;;;2.87;69.78;95199.94;5026398;28;20112;-70
2023/01/12 06:48:46;;;;;;;13.18;7.05;;;;;;;2.99;69.59;95203.47;5015183;28;20029;-70
2023/01/12 06:51:11;;;;;;;12.90;6.60;;;;;;;3.04;69.39;95211.22;5027150;28;20467;-70
2023/01/12 06:53:36;;;;;;;11.35;6.97;;;;;;;3.03;69.35;95210.47;5038679;28;20025;-70
2023/01/12 06:56:02;;;;;;;15.80;8.60;;;;;;;2.99;69.67;95223.25;5033933;28;20391;-69
2023/01/12 06:58:27;;;;;;;13.23;6.97;;;;;;;2.93;69.93;95225.56;5025989;28;20033;-68
2023/01/12 07:00:53;;;;;;;13.48;7.57;;;;;;;3.02;69.52;95210.84;5026789;28;20029;-69
2023/01/12 07:03:18;;;;;;;13.95;7.65;;;;;;;3.00;69.54;95211.22;5025893;28;20029;-69
2023/01/12 07:05:44;;;;;;;12.90;6.57;;;;;;;3.01;69.70;95218.22;5022622;28;20403;-69
2023/01/12 07:08:13;;;;;;;10.73;6.50;;;;;;;2.98;69.68;95223.63;5042036;28;20036;-73
2023/01/12 07:10:38;;;;;;;13.90;6.72;;;;;;;2.99;69.61;95228.69;5030483;28;20042;-69
2023/01/12 07:13:04;;;;;;;12.77;7.53;;;;;;;3.09;69.59;95232.59;5024451;28;20404;-69
2023/01/12 07:15:29;;;;;;;14.07;7.70;;;;;;;3.10;69.43;95229.53;5025100;28;20034;-70
2023/01/12 07:17:55;;;;;;;14.15;7.25;;;;;;;3.12;69.45;95223.69;5024700;28;20357;-69
2023/01/12 07:20:21;;;;;;;12.43;6.63;;;;;;;3.11;69.26;95220.22;5024804;28;20507;-69
2023/01/12 07:22:46;;;;;;;11.75;6.35;;;;;;;3.09;69.38;95221.75;5025003;28;20083;-68
2023/01/12 07:25:12;;;;;;;11.93;6.82;;;;;;;3.20;69.06;95214.41;5024667;28;20033;-67
2023/01/12 07:27:37;;;;;;;9.20;6.10;;;;;;;3.31;68.78;95217.16;5014121;28;20043;-68
2023/01/12 07:30:03;;;;;;;9.75;5.70;;;;;;;3.40;68.43;95223.81;5041618;28;20423;-67
2023/01/12 07:32:29;;;;;;;9.40;5.88;;;;;;;3.37;68.21;95215.63;5028094;28;20068;-68
2023/01/12 07:34:54;;;;;;;8.57;6.05;;;;;;;3.42;67.98;95215.25;5053118;28;20017;-69
2023/01/12 07:37:20;;;;;;;9.60;5.03;;;;;;;3.45;67.80;95211.78;5044505;28;20029;-69
2023/01/12 07:39:45;;;;;;;9.43;6.07;;;;;;;3.44;67.97;95212.94;5029378;28;20107;-69
2023/01/12 07:42:23;;;;;;;9.15;5.28;;;;;;;3.46;67.78;95218.78;5026126;28;20344;-69
2023/01/12 07:44:48;;;;;;;9.32;6.13;;;;;;;3.39;67.81;95219.53;5029582;28;20503;-68
2023/01/12 07:47:14;;;;;;;8.30;4.85;;;;;;;3.37;67.75;95210.19;5039419;28;20035;-68
2023/01/12 07:49:39;;;;;;;7.75;5.57;;;;;;;3.37;67.87;95221.06;5046632;28;20097;-68
2023/01/12 07:52:05;;;;;;;9.93;5.88;;;;;;;3.44;67.83;95213.75;5047706;28;20560;-68
2023/01/12 07:54:30;;;;;;;9.18;6.00;;;;;;;3.54;67.75;95216.84;5047992;28;20112;-68
2023/01/12 07:56:56;;;;;;;12.98;7.43;;;;;;;3.59;67.70;95211.03;5047684;28;20255;-69
2023/01/12 07:59:22;;;;;;;9.82;6.40;;;;;;;3.62;67.39;95213.00;5042477;28;20029;-68
2023/01/12 08:01:47;;;;;;;9.95;5.95;;;;;;;3.68;67.15;95223.13;5038681;28;20098;-68
2023/01/12 08:04:13;;;;;;;9.05;5.50;;;;;;;3.73;67.06;95227.41;5048204;28;20017;-69
2023/01/12 08:06:38;;;;;;;8.70;5.22;;;;;;;3.76;66.84;95232.06;5031665;28;20064;-70
2023/01/12 08:09:03;;;;;;;7.40;5.25;;;;;;;3.82;66.60;95227.78;5028601;28;20038;-68
2023/01/12 08:11:29;;;;;;;9.35;5.10;;;;;;;3.85;66.64;95232.47;5027897;28;20032;-68
2023/01/12 08:13:55;;;;;;;6.75;4.70;;;;;;;3.86;65.90;95227.81;5028621;28;20409;-69
2023/01/12 08:16:24;;;;;;;5.18;3.63;;;;;;;3.83;65.99;95225.84;5026191;28;20571;-68
2023/01/12 08:18:55;;;;;;;6.78;3.88;;;;;;;3.81;66.05;95223.53;5027253;28;20044;-68
2023/01/12 08:21:22;;;;;;;5.45;3.80;;;;;;;3.85;65.84;95223.53;5042603;28;20492;-68
2023/01/12 08:23:49;;;;;;;5.20;3.22;;;;;;;3.84;65.57;95228.19;5029361;28;20025;-69
2023/01/12 08:26:17;;;;;;;5.47;3.90;;;;;;;3.89;65.14;95233.22;5046591;28;20036;-69
2023/01/12 08:28:46;;;;;;;8.25;4.10;;;;;;;4.02;64.88;95230.16;5042147;28;20033;-70
2023/01/12 08:31:12;;;;;;;4.40;3.30;;;;;;;4.33;63.63;95231.34;5011666;28;20027;-69
2023/01/12 08:33:38;;;;;;;3.75;2.92;;;;;;;4.45;62.96;95225.50;5026163;28;20033;-67
2023/01/12 08:36:04;;;;;;;5.38;3.50;;;;;;;4.65;62.74;95225.88;5010550;28;20630;-70
2023/01/12 08:38:29;;;;;;;5.68;3.15;;;;;;;4.72;62.29;95220.41;5042521;28;20450;-68
2023/01/12 08:46:23;;;;;;;4.35;3.05;;;;;;;5.80;58.54;95221.56;5037902;28;20003;-70
2023/01/12 08:48:48;;;;;;;6.82;3.30;;;;;;;5.48;59.08;95213.53;5033297;28;20030;-68
2023/01/12 08:51:13;;;;;;;4.32;2.95;;;;;;;5.16;60.30;95221.84;5028229;28;20095;-67
2023/01/12 08:53:39;;;;;;;4.18;2.88;;;;;;;5.12;60.16;95219.16;5026916;28;20071;-69
2023/01/12 08:56:05;;;;;;;4.70;3.03;;;;;;;5.12;60.18;95226.53;5043220;28;20033;-69
2023/01/12 08:58:31;;;;;;;4.47;2.88;;;;;;;5.11;60.02;95225.00;5026962;28;20025;-69
2023/01/12 09:00:56;;;;;;;4.05;2.95;;;;;;;5.14;60.09;95230.41;5027698;28;20079;-67
2023/01/12 09:03:21;;;;;;;5.25;3.25;;;;;;;5.20;59.58;95225.34;5037883;28;20028;-69
2023/01/12 09:05:47;;;;;;;4.70;3.20;;;;;;;5.25;58.95;95236.63;5038262;28;20488;-69
2023/01/12 09:08:13;;;;;;;6.60;4.00;;;;;;;5.33;59.31;95231.91;5030235;28;20419;-70
2023/01/12 09:10:38;;;;;;;5.28;2.92;;;;;;;5.26;58.71;95227.25;5038076;28;20038;-69
2023/01/12 09:13:04;;;;;;;5.18;3.28;;;;;;;5.28;58.89;95226.88;5025543;28;20049;-69
2023/01/12 09:15:29;;;;;;;9.35;2.95;;;;;;;5.23;58.83;95225.34;5032497;28;20119;-70
2023/01/12 09:17:55;;;;;;;4.50;3.15;;;;;;;5.25;58.85;95227.66;5047252;28;20465;-70
2023/01/12 09:20:21;;;;;;;6.50;4.10;;;;;;;5.43;58.45;95231.09;5035639;28;20032;-70
2023/01/12 09:22:46;;;;;;;8.40;5.10;;;;;;;5.45;58.54;95226.03;5043854;28;20037;-71
2023/01/12 09:25:12;;;;;;;5.30;3.63;;;;;;;5.27;58.46;95231.53;5033405;28;20087;-69
2023/01/12 09:27:37;;;;;;;4.90;2.78;;;;;;;5.37;58.49;95226.44;5018644;28;20167;-71
2023/01/12 09:30:04;;;;;;;5.05;3.47;;;;;;;5.48;57.89;95224.44;5046807;28;20029;-69
2023/01/12 09:32:29;;;;;;;6.10;3.22;;;;;;;5.44;57.89;95218.22;5041281;28;20017;-69
2023/01/12 09:34:55;;;;;;;4.40;3.05;;;;;;;5.48;57.89;95222.50;5044230;28;20020;-70
2023/01/12 09:37:20;;;;;;;5.78;3.15;;;;;;;5.49;57.88;95229.50;5044585;28;20029;-68
2023/01/12 09:39:46;;;;;;;5.70;3.45;;;;;;;5.38;57.86;95228.78;5036344;28;20432;-69
2023/01/12 09:47:51;;;;;;;7.22;3.65;;;;;;;5.13;58.55;95226.16;5028393;28;20036;-70
2023/01/12 09:50:22;;;;;;;4.55;2.85;;;;;;;4.92;59.04;95213.34;5008334;28;20032;-68
2023/01/12 09:53:10;;;;;;;4.72;2.83;;;;;;;4.87;59.48;95221.16;5015418;28;20039;-70
2023/01/12 09:55:45;;;;;;;6.47;3.83;;;;;;;4.94;59.49;95219.19;5034287;28;20090;-69
2023/01/12 09:58:33;;;;;;;6.95;4.38;;;;;;;4.92;59.77;95215.28;5033019;28;20098;-68
2023/01/12 10:00:58;;;;;;;7.68;4.40;;;;;;;4.94;59.53;95207.53;5042958;28;20029;-68
2023/01/12 10:03:26;;;;;;;4.78;3.35;;;;;;;5.04;59.52;95212.16;5042319;28;20025;-70
2023/01/12 10:05:53;;;;;;;4.82;3.10;;;;;;;4.82;59.34;95210.66;5045157;28;20062;-71
2023/01/12 10:08:40;;;;;;;4.75;3.20;;;;;;;4.85;59.81;95207.16;5042091;28;20037;-69
2023/01/12 10:11:24;;;;;;;4.20;2.60;;;;;;;4.78;59.88;95214.16;5044466;28;20120;-69
2023/01/12 10:14:10;;;;;;;4.75;3.17;;;;;;;4.75;59.67;95216.88;5044851;28;20072;-69
2023/01/12 10:16:50;;;;;;;4.47;2.63;;;;;;;4.84;59.36;95216.50;5045200;28;20029;-68
2023/01/12 10:19:32;;;;;;;8.27;2.97;;;;;;;4.79;59.61;95206.78;5046168;28;20052;-68
2023/01/12 10:21:59;;;;;;;4.88;3.13;;;;;;;4.86;58.98;95208.69;5045898;28;20090;-68
2023/01/12 10:24:24;;;;;;;4.90;3.10;;;;;;;4.84;59.45;95217.28;5043802;28;20021;-69
2023/01/12 10:27:00;;;;;;;5.70;2.80;;;;;;;4.82;59.53;95211.44;5045905;28;20040;-70
2023/01/12 10:29:25;;;;;;;5.75;3.17;;;;;;;4.87;59.56;95210.25;5027486;28;20549;-69
2023/01/12 10:31:51;;;;;;;4.97;3.25;;;;;;;4.87;59.38;95208.31;5045948;28;20028;-68
2023/01/12 10:34:17;;;;;;;9.02;3.38;;;;;;;4.89;59.16;95211.44;5044546;28;20410;-69
2023/01/12 10:36:45;;;;;;;9.43;4.07;;;;;;;4.80;59.38;95203.66;5045492;28;20456;-71
2023/01/12 10:39:29;;;;;;;7.05;3.55;;;;;;;4.82;59.21;95207.94;5027635;28;20440;-67
2023/01/12 10:45:19;;;;;;;4.55;2.97;;;;;;;4.90;58.86;95204.81;5046201;28;20059;-68
2023/01/12 10:47:45;;;;;;;4.75;2.85;;;;;;;4.94;58.29;95202.84;5043933;28;20059;-70
2023/01/12 10:50:17;;;;;;;4.65;3.28;;;;;;;4.94;58.69;95204.81;5044125;28;20400;-69
2023/01/12 10:52:42;;;;;;;4.88;2.95;;;;;;;4.95;58.53;95195.44;5045639;28;20503;-70
2023/01/12 10:55:19;;;;;;;5.28;3.20;;;;;;;4.97;58.93;95182.97;5044694;28;20078;-68
2023/01/12 10:57:45;;;;;;;4.45;2.80;;;;;;;5.08;58.25;95180.22;5044466;28;20289;-69
2023/01/12 11:00:23;;;;;;;5.07;2.83;;;;;;;5.12;58.30;95178.25;5026690;28;20033;-69
2023/01/12 11:02:48;;;;;;;5.10;3.17;;;;;;;5.27;58.20;95174.28;5027684;28;20060;-70
2023/01/12 11:05:35;;;;;;;3.97;2.83;;;;;;;5.36;57.76;95176.59;5026122;28;20025;-68
2023/01/12 11:08:01;;;;;;;4.68;3.45;;;;;;;5.38;57.72;95179.69;5044722;28;20029;-69
2023/01/12 11:10:28;;;;;;;3.75;2.88;;;;;;;5.38;57.47;95178.91;5045281;28;20090;-69
2023/01/12 11:13:03;;;;;;;2.90;2.58;;;;;;;5.24;57.94;95168.88;5044798;28;20041;-70
2023/01/12 11:15:29;;;;;;;5.32;2.40;;;;;;;5.37;57.84;95182.81;5045240;28;20037;-70
2023/01/12 11:18:32;;;;;;;5.22;3.22;;;;;;;5.38;57.34;95176.97;5047204;28;20397;-71
2023/01/12 11:21:04;;;;;;;3.25;2.15;;;;;;;5.29;57.40;95173.91;5048223;28;20029;-69
2023/01/12 11:23:34;;;;;;;4.80;2.38;;;;;;;5.29;57.23;95168.47;5048785;28;20088;-69
2023/01/12 11:26:00;;;;;;;4.45;2.55;;;;;;;5.35;57.45;95174.28;5048616;28;20075;-70
2023/01/12 11:28:32;;;;;;;5.68;3.13;;;;;;;5.39;57.59;95164.91;5047626;28;20021;-72
2023/01/12 11:31:07;;;;;;;4.00;2.75;;;;;;;5.40;56.90;95161.00;5031636;28;20116;-70
2023/01/12 11:33:34;;;;;;;3.70;3.05;;;;;;;5.48;57.06;95169.91;5030850;28;20024;-69
2023/01/12 11:36:16;;;;;;;5.18;2.70;;;;;;;5.51;56.74;95160.94;5047884;28;20514;-69
2023/01/12 11:38:53;;;;;;;3.83;2.30;;;;;;;5.48;56.78;95159.78;5031455;28;20048;-69
2023/01/12 11:41:24;;;;;;;3.65;2.72;;;;;;;5.46;57.01;95169.53;5031135;28;20029;-69
2023/01/12 11:43:54;;;;;;;3.15;2.30;;;;;;;5.38;57.48;95166.06;5030458;28;20483;-70
2023/01/12 11:46:35;;;;;;;6.90;3.20;;;;;;;5.21;58.38;95159.53;5048249;28;20029;-68
2023/01/12 11:49:24;;;;;;;6.70;3.70;;;;;;;5.28;58.66;95166.91;5032782;28;20032;-69
2023/01/12 11:51:56;;;;;;;5.45;3.22;;;;;;;5.29;58.22;95155.59;5047673;28;20022;-70
2023/01/12 11:54:22;;;;;;;3.80;2.80;;;;;;;5.35;57.89;95155.97;5048329;28;20550;-69
2023/01/12 11:57:03;;;;;;;5.70;3.88;;;;;;;5.48;57.74;95156.28;5030397;28;20029;-72
2023/01/12 11:59:43;;;;;;;5.45;3.70;;;;;;;5.55;57.61;95157.00;5047759;28;20025;-69
2023/01/12 12:02:11;;;;;;;4.97;3.50;;;;;;;5.57;57.49;95154.66;5048768;28;20065;-70
2023/01/12 12:05:04;;;;;;;5.63;3.92;;;;;;;5.66;57.49;95154.22;5047438;28;20063;-71
2023/01/12 12:07:55;;;;;;;6.45;3.22;;;;;;;5.62;57.57;95150.75;5046677;28;20033;-70
2023/01/12 12:10:49;;;;;;;4.53;3.08;;;;;;;5.49;57.75;95149.66;5046855;28;20095;-71
2023/01/12 12:13:34;;;;;;;7.88;3.72;;;;;;;5.49;58.18;95153.16;5045530;28;20045;-72
2023/01/12 12:16:18;;;;;;;6.07;3.58;;;;;;;5.55;58.29;95142.59;5047033;28;20099;-69
2023/01/12 12:18:52;;;;;;;5.07;3.80;;;;;;;5.64;57.56;95153.06;5046889;28;20591;-69
2023/01/12 12:21:36;;;;;;;5.80;3.78;;;;;;;5.62;58.26;95144.50;5047094;28;20036;-70
2023/01/12 12:24:23;;;;;;;;;;;;;;;5.52;58.58;95151.59;5048898;28;20029;-70
2023/01/12 12:27:06;;;;;;;5.72;3.53;;;;;;;5.53;58.38;95155.88;5046349;28;19920;-71
2023/01/12 12:29:37;;;;;;;7.22;4.72;;;;;;;5.56;58.62;95153.13;5045916;28;20071;-70
2023/01/12 12:32:21;;;;;;;8.02;4.95;;;;;;;5.56;58.63;95149.59;5048123;28;20060;-69
2023/01/12 12:35:24;;;;;;;7.20;3.83;;;;;;;5.45;59.08;95155.13;5047185;28;20029;-70